Terminal Aerodrome Forecast
Issued by NWS

Home | Current Version | Previous Version | Text Only | Print | Product List | Glossary On
Versions: 1 2 3 4 5 6 7 8 9 10 11 12 13 14 15 16 17
000
FTUS43 KGRR 251740
TAFJXN
TAF
KJXN 251740Z 2518/2618 26011KT P6SM VCTS BKN035CB
      TEMPO 2519/2520 2SM -TSRA OVC025CB
     FM252100 27009KT P6SM SCT040 BKN150
     FM261200 31002KT 4SM BR FEW250
     FM261300 30004KT P6SM SKC=

USA.gov is the U.S. government's official web portal to all federal, state and local government web resources and services.